Time;durP1;ratioP1;P1;durP2;ratioP2;P2;SDS_P1;SDS_P2;PMS_P1;PMS_P2;Temp;Humidity;BMP_temperature;BMP_pressure;BME280_temperature;BME280_humidity;BME280_pressure;Samples;Min_cycle;Max_cycle;Signal;HPM_P1;HPM_P2
2021/07/31 00:01:03;;;;;;;11.70;9.97;;;;;;;24.11;72.45;100648.78;4976363;28;102250;-53
2021/07/31 00:03:30;;;;;;;10.75;9.43;;;;;;;24.12;72.63;100652.34;4979570;28;102168;-52
2021/07/31 00:05:58;;;;;;;10.85;9.63;;;;;;;24.12;72.48;100649.56;4986000;28;102255;-53
2021/07/31 00:08:25;;;;;;;10.43;9.35;;;;;;;24.10;72.61;100641.63;4985335;28;103851;-53
2021/07/31 00:10:52;;;;;;;11.77;10.07;;;;;;;24.10;72.43;100644.41;4987928;28;102371;-53
2021/07/31 00:13:18;;;;;;;9.95;8.90;;;;;;;24.10;72.25;100647.19;4988056;28;102399;-52
2021/07/31 00:15:47;;;;;;;10.88;9.18;;;;;;;24.10;72.20;100649.16;4991482;28;102439;-52
2021/07/31 00:18:13;;;;;;;10.35;9.32;;;;;;;24.10;72.42;100644.41;4987471;28;104580;-53
2021/07/31 00:20:41;;;;;;;10.73;9.20;;;;;;;24.09;72.58;100650.31;4985436;28;102002;-52
2021/07/31 00:23:08;;;;;;;10.18;9.10;;;;;;;24.10;72.51;100638.03;4986283;28;102424;-53
2021/07/31 00:25:34;;;;;;;10.25;9.25;;;;;;;24.11;72.42;100645.19;4988056;28;102186;-53
2021/07/31 00:28:02;;;;;;;10.30;9.30;;;;;;;24.11;72.57;100643.22;4987420;28;103235;-53
2021/07/31 00:30:29;;;;;;;10.68;9.32;;;;;;;24.08;72.68;100643.94;4988203;28;102489;-52
2021/07/31 00:32:57;;;;;;;9.93;8.88;;;;;;;24.09;72.40;100642.78;4986056;28;102241;-53
2021/07/31 00:35:23;;;;;;;10.52;9.52;;;;;;;24.10;72.51;100647.19;4988971;28;102251;-53
2021/07/31 00:37:50;;;;;;;12.75;10.07;;;;;;;24.10;72.48;100647.19;4984384;28;104006;-52
2021/07/31 00:40:17;;;;;;;13.07;9.45;;;;;;;24.10;72.51;100641.63;4985137;28;102683;-52
2021/07/31 00:42:43;;;;;;;12.98;9.85;;;;;;;24.10;72.18;100647.19;4988045;28;102547;-52
2021/07/31 00:45:11;;;;;;;10.45;9.35;;;;;;;24.10;72.43;100641.63;4988383;28;102828;-53
2021/07/31 00:47:38;;;;;;;12.18;9.50;;;;;;;24.09;72.44;100645.56;4973346;28;104925;-52
2021/07/31 00:50:08;;;;;;;10.90;9.57;;;;;;;24.09;72.42;100628.88;4985359;28;102628;-53
2021/07/31 00:52:35;;;;;;;9.85;8.85;;;;;;;24.08;72.34;100624.47;4986769;28;102390;-53
2021/07/31 00:55:02;;;;;;;9.95;8.95;;;;;;;24.09;72.33;100622.50;4988786;28;102310;-53
2021/07/31 00:57:32;;;;;;;11.25;9.27;;;;;;;24.10;72.58;100624.94;4987836;28;103887;-52
2021/07/31 00:59:58;;;;;;;10.30;9.30;;;;;;;24.08;72.30;100616.13;4988350;28;102397;-53
2021/07/31 01:02:25;;;;;;;11.60;8.85;;;;;;;24.07;72.60;100614.53;4988933;28;102196;-53
2021/07/31 01:04:52;;;;;;;10.98;9.85;;;;;;;24.07;72.62;100614.53;4985875;28;102337;-53
2021/07/31 01:07:20;;;;;;;11.73;9.90;;;;;;;24.07;72.46;100611.75;4987885;28;103930;-53
2021/07/31 01:09:47;;;;;;;12.13;8.80;;;;;;;24.08;72.45;100610.56;4994794;28;102471;-53
2021/07/31 01:12:13;;;;;;;10.15;9.15;;;;;;;24.09;72.39;100600.25;4989216;28;102522;-53
2021/07/31 01:14:41;;;;;;;10.10;9.10;;;;;;;24.08;72.27;100598.66;4992626;28;102527;-53
2021/07/31 01:17:17;;;;;;;11.10;9.25;;;;;;;24.07;72.38;100599.84;4981435;28;104061;-53
2021/07/31 01:19:44;;;;;;;10.05;9.02;;;;;;;24.07;72.18;100597.84;4990655;28;102560;-52
2021/07/31 01:22:12;;;;;;;9.82;8.88;;;;;;;24.07;72.18;100597.06;4988607;28;102188;-53
2021/07/31 01:24:38;;;;;;;12.15;10.00;;;;;;;24.07;72.45;100597.84;4993458;28;102522;-53
2021/07/31 01:27:05;;;;;;;12.90;9.45;;;;;;;24.06;72.21;100590.69;4987483;28;103839;-53
2021/07/31 01:29:32;;;;;;;11.43;9.57;;;;;;;24.07;72.32;100597.06;4982026;28;102375;-53
2021/07/31 01:31:58;;;;;;;10.50;9.30;;;;;;;24.07;72.16;100602.63;4987351;28;102686;-53
2021/07/31 01:34:25;;;;;;;10.20;9.20;;;;;;;24.06;72.33;100590.69;4993029;28;103157;-52
2021/07/31 01:36:52;;;;;;;10.40;9.43;;;;;;;24.06;72.28;100589.91;4992031;28;104246;-52
2021/07/31 01:39:20;;;;;;;9.38;8.40;;;;;;;24.07;72.29;100602.63;4989402;28;104143;-53
2021/07/31 01:41:46;;;;;;;12.38;9.48;;;;;;;24.06;72.05;100601.03;4990826;28;102432;-52
2021/07/31 01:44:13;;;;;;;10.13;8.95;;;;;;;24.07;72.34;100602.63;4988783;28;102405;-53
2021/07/31 01:46:40;;;;;;;10.93;8.93;;;;;;;24.07;72.06;100603.41;4970329;28;103903;-53
2021/07/31 01:49:08;;;;;;;10.30;8.63;;;;;;;24.06;72.01;100601.81;4988925;28;102775;-53
2021/07/31 01:51:35;;;;;;;12.82;9.75;;;;;;;24.06;72.15;100607.38;4989081;28;102605;-52
2021/07/31 01:54:01;;;;;;;9.60;8.30;;;;;;;24.06;72.03;100607.38;4979678;28;102232;-53
2021/07/31 01:56:30;;;;;;;9.85;8.90;;;;;;;24.05;72.26;100605.75;4989273;28;104220;-53
2021/07/31 01:58:57;;;;;;;9.48;8.50;;;;;;;24.05;72.10;100602.97;4988280;28;102155;-53
2021/07/31 02:01:24;;;;;;;9.05;8.07;;;;;;;24.05;72.20;100594.63;4988018;28;102168;-52
2021/07/31 02:03:51;;;;;;;9.50;8.48;;;;;;;24.05;72.21;100605.75;4989419;28;102658;-52
2021/07/31 02:06:17;;;;;;;10.50;9.45;;;;;;;24.06;72.04;100604.59;4986779;28;103990;-53
2021/07/31 02:08:44;;;;;;;11.20;9.25;;;;;;;24.07;72.09;100603.41;4993998;28;102365;-53
2021/07/31 02:11:12;;;;;;;9.63;8.60;;;;;;;24.05;71.91;100597.41;4988280;28;102540;-53
2021/07/31 02:13:40;;;;;;;9.88;8.93;;;;;;;24.06;72.03;100606.56;4990388;28;102267;-53
2021/07/31 02:16:07;;;;;;;10.52;8.65;;;;;;;24.05;72.08;100605.75;4988616;28;103706;-53
2021/07/31 02:18:34;;;;;;;10.85;9.15;;;;;;;24.06;72.09;100606.56;4989972;28;102593;-53
2021/07/31 02:21:01;;;;;;;9.63;8.73;;;;;;;24.06;72.19;100612.94;4988223;28;102369;-53
2021/07/31 02:23:27;;;;;;;10.38;9.27;;;;;;;24.05;72.21;100613.28;4991455;28;102256;-53
2021/07/31 02:25:54;;;;;;;10.18;9.18;;;;;;;24.05;72.19;100616.88;4988751;28;103703;-52
2021/07/31 02:28:20;;;;;;;10.43;9.13;;;;;;;24.04;71.92;100618.03;4992269;28;102185;-53
2021/07/31 02:30:48;;;;;;;10.00;9.00;;;;;;;24.04;71.96;100620.81;4988184;28;102064;-53
2021/07/31 02:33:15;;;;;;;9.45;8.35;;;;;;;24.05;72.13;100627.19;4985534;28;102803;-53
2021/07/31 02:35:42;;;;;;;9.40;8.43;;;;;;;24.05;71.99;100627.19;5012964;28;103945;-53
2021/07/31 02:38:09;;;;;;;11.43;8.98;;;;;;;24.04;71.92;100623.59;5009390;28;102573;-52
2021/07/31 02:40:35;;;;;;;10.55;9.45;;;;;;;24.04;71.63;100631.13;5005511;28;102375;-52
2021/07/31 02:43:02;;;;;;;11.75;9.02;;;;;;;24.04;71.82;100626.38;5000851;28;102702;-53
2021/07/31 02:45:29;;;;;;;10.20;8.77;;;;;;;24.04;71.61;100623.59;5002919;28;103956;-53
2021/07/31 02:47:57;;;;;;;10.88;8.45;;;;;;;24.04;72.02;100623.59;5009231;28;102140;-53
2021/07/31 02:50:27;;;;;;;9.82;8.77;;;;;;;24.04;72.09;100626.38;5004947;28;103325;-53
2021/07/31 02:52:54;;;;;;;9.70;8.70;;;;;;;24.04;71.84;100631.94;5009128;28;103164;-53
2021/07/31 02:55:20;;;;;;;9.80;8.57;;;;;;;24.04;71.88;100631.94;5006164;28;104041;-53
2021/07/31 02:57:47;;;;;;;10.38;8.68;;;;;;;24.03;72.00;100627.56;5008725;28;102008;-52
2021/07/31 03:00:14;;;;;;;12.27;8.20;;;;;;;24.04;71.79;100631.94;5007090;28;102613;-53
2021/07/31 03:02:41;;;;;;;9.75;8.75;;;;;;;24.03;72.01;100630.34;5008538;28;102576;-52
2021/07/31 03:05:10;;;;;;;8.82;7.93;;;;;;;24.05;71.92;100638.31;4995708;28;103733;-53
2021/07/31 03:07:37;;;;;;;8.82;7.82;;;;;;;24.04;71.99;100637.50;5016770;28;102202;-53
2021/07/31 03:10:06;;;;;;;9.90;8.35;;;;;;;24.06;71.99;100635.19;5005888;28;102486;-52
2021/07/31 03:12:34;;;;;;;9.57;8.15;;;;;;;24.05;72.03;100632.75;5010377;28;102195;-53
2021/07/31 03:15:01;;;;;;;10.25;8.35;;;;;;;24.04;72.00;100637.50;4998099;28;104013;-53
2021/07/31 03:17:28;;;;;;;9.82;8.73;;;;;;;24.05;72.00;100649.44;5010080;28;102653;-52
2021/07/31 03:19:55;;;;;;;9.65;8.70;;;;;;;24.04;71.84;100637.50;5007354;28;102660;-52
2021/07/31 03:22:23;;;;;;;9.20;8.30;;;;;;;24.04;71.99;100648.63;5009617;28;102846;-52
2021/07/31 03:24:49;;;;;;;8.95;8.15;;;;;;;24.03;72.27;100647.03;5005083;28;103955;-52
2021/07/31 03:27:18;;;;;;;8.32;7.50;;;;;;;24.05;72.06;100644.66;5007762;28;102318;-52
2021/07/31 03:29:45;;;;;;;8.95;8.10;;;;;;;24.06;72.26;100648.28;5003308;28;102632;-52
2021/07/31 03:32:11;;;;;;;8.52;7.72;;;;;;;24.05;72.11;100644.66;5008670;28;102606;-53
2021/07/31 03:34:38;;;;;;;8.68;7.72;;;;;;;24.04;72.48;100645.84;4999681;28;103845;-53
2021/07/31 03:37:04;;;;;;;8.45;7.65;;;;;;;24.05;72.37;100650.22;4986546;28;103857;-52
2021/07/31 03:39:33;;;;;;;9.15;8.23;;;;;;;24.04;72.48;100648.63;4986340;28;102568;-53
2021/07/31 03:42:00;;;;;;;8.30;7.50;;;;;;;24.03;72.60;100647.03;4988920;28;102647;-53
2021/07/31 03:44:27;;;;;;;8.40;7.60;;;;;;;24.04;72.45;100647.81;4987487;28;103846;-53
2021/07/31 03:46:54;;;;;;;10.02;8.32;;;;;;;24.05;72.70;100660.53;4969049;28;102677;-52
2021/07/31 03:49:21;;;;;;;8.57;7.68;;;;;;;24.06;72.50;100657.41;4985769;28;102185;-52
2021/07/31 03:51:48;;;;;;;7.93;7.10;;;;;;;24.06;72.68;100662.19;4990219;28;103060;-53
2021/07/31 03:54:15;;;;;;;8.00;7.30;;;;;;;24.06;72.54;100662.97;4977206;28;103983;-52
2021/07/31 03:56:43;;;;;;;8.43;7.53;;;;;;;24.06;72.75;100667.72;4986594;28;102190;-52
2021/07/31 03:59:10;;;;;;;8.53;7.73;;;;;;;24.05;72.47;100672.47;4981244;28;102330;-53
2021/07/31 04:01:38;;;;;;;7.60;6.90;;;;;;;24.04;72.78;100659.75;4986129;28;102779;-53
2021/07/31 04:04:05;;;;;;;7.68;6.97;;;;;;;24.04;72.80;100670.84;4987601;28;103902;-53
2021/07/31 04:06:31;;;;;;;8.35;7.60;;;;;;;24.03;72.47;100666.47;4983105;28;102498;-52
2021/07/31 04:08:58;;;;;;;8.35;7.55;;;;;;;24.05;72.59;100661.34;4987641;28;102166;-53
2021/07/31 04:11:24;;;;;;;8.50;7.75;;;;;;;24.05;72.68;100666.91;4987236;28;102422;-52
2021/07/31 04:13:54;;;;;;;8.55;7.13;;;;;;;24.05;72.82;100666.91;4987881;28;102699;-53
2021/07/31 04:16:21;;;;;;;8.07;7.28;;;;;;;24.07;72.80;100678.47;4987468;28;102222;-52
2021/07/31 04:18:48;;;;;;;8.23;7.43;;;;;;;24.07;72.57;100666.56;4986777;28;102050;-53
2021/07/31 04:21:15;;;;;;;8.02;7.28;;;;;;;24.07;72.60;100675.69;4986750;28;102259;-52
2021/07/31 04:23:42;;;;;;;7.80;7.10;;;;;;;24.08;72.79;100668.16;4984497;28;104471;-53
2021/07/31 04:26:19;;;;;;;7.85;7.15;;;;;;;24.08;72.67;100685.63;4985325;28;103194;-52
2021/07/31 04:28:47;;;;;;;7.63;6.82;;;;;;;24.08;72.56;100679.28;4985927;28;102012;-53
2021/07/31 04:31:16;;;;;;;7.72;6.97;;;;;;;24.08;72.80;100674.53;4988171;28;102154;-52
2021/07/31 04:33:44;;;;;;;8.70;7.32;;;;;;;24.08;72.77;100677.31;4987031;28;104153;-53
2021/07/31 04:36:11;;;;;;;8.85;7.85;;;;;;;24.08;72.68;100671.75;4998257;28;102619;-53
2021/07/31 04:38:38;;;;;;;8.13;7.43;;;;;;;24.10;72.67;100679.72;5003284;28;102125;-53
2021/07/31 04:41:06;;;;;;;8.27;7.38;;;;;;;24.08;72.77;100677.31;5007347;28;102397;-53
2021/07/31 04:43:33;;;;;;;8.30;7.50;;;;;;;24.08;72.72;100682.88;5006733;28;104192;-53
2021/07/31 04:46:00;;;;;;;9.90;7.45;;;;;;;24.08;72.96;100688.41;5006087;28;102430;-52
2021/07/31 04:48:29;;;;;;;8.35;7.53;;;;;;;24.09;72.66;100684.50;5006461;28;103943;-53
2021/07/31 04:50:57;;;;;;;8.02;7.22;;;;;;;24.09;72.71;100690.06;5000655;28;102184;-53
2021/07/31 04:53:24;;;;;;;8.20;7.40;;;;;;;24.10;72.93;100691.66;5004861;28;103931;-53
2021/07/31 04:55:51;;;;;;;9.13;8.05;;;;;;;24.10;72.94;100686.09;5007476;28;102618;-52
2021/07/31 04:58:17;;;;;;;8.00;7.30;;;;;;;24.10;72.60;100691.66;5007952;28;102427;-52
2021/07/31 05:00:46;;;;;;;8.07;7.32;;;;;;;24.09;72.74;100695.63;5000905;28;102147;-53
2021/07/31 05:03:13;;;;;;;8.75;7.65;;;;;;;24.11;72.88;100687.69;5006658;28;104061;-53
2021/07/31 05:05:41;;;;;;;8.95;8.05;;;;;;;24.10;72.77;100691.66;5005135;28;102560;-56
2021/07/31 05:08:09;;;;;;;8.07;7.30;;;;;;;24.12;72.54;100692.09;4995669;28;102003;-53
2021/07/31 05:10:38;;;;;;;8.43;7.70;;;;;;;24.12;72.73;100686.53;5006416;28;102232;-52
2021/07/31 05:13:04;;;;;;;8.88;7.97;;;;;;;24.12;72.79;100685.72;5007235;28;103975;-53
2021/07/31 05:15:31;;;;;;;8.38;7.57;;;;;;;24.14;72.67;100692.53;5007572;28;102179;-53
2021/07/31 05:17:57;;;;;;;8.20;7.43;;;;;;;24.13;72.71;100685.38;5006858;28;102560;-52
2021/07/31 05:20:24;;;;;;;7.40;6.80;;;;;;;24.14;72.51;100698.09;5005710;28;102673;-53
2021/07/31 05:22:55;;;;;;;8.50;7.67;;;;;;;24.14;72.60;100698.09;5005367;28;103758;-53
2021/07/31 05:25:22;;;;;;;8.10;7.40;;;;;;;24.16;72.88;100701.34;5004179;28;102803;-53
2021/07/31 05:27:48;;;;;;;8.68;7.88;;;;;;;24.16;72.90;100693.00;5003619;28;102737;-53
2021/07/31 05:30:16;;;;;;;7.85;7.15;;;;;;;24.18;72.35;100695.38;5004166;28;102103;-53
2021/07/31 05:32:42;;;;;;;8.55;7.75;;;;;;;24.18;72.76;100687.84;5005369;28;103890;-53
2021/07/31 05:35:09;;;;;;;8.13;7.32;;;;;;;24.21;72.65;100697.44;4993953;28;102200;-53
2021/07/31 05:37:36;;;;;;;8.50;7.70;;;;;;;24.21;72.70;100700.22;4983464;28;102767;-52
2021/07/31 05:40:05;;;;;;;8.10;7.40;;;;;;;24.22;72.42;100699.84;4987678;28;102646;-53
2021/07/31 05:42:32;;;;;;;8.40;7.60;;;;;;;24.23;72.43;100697.88;4985817;28;102846;-53
2021/07/31 05:45:00;;;;;;;7.40;6.70;;;;;;;24.26;72.66;100699.13;4989502;28;102618;-53
2021/07/31 05:47:28;;;;;;;7.82;7.15;;;;;;;24.27;72.43;100689.59;4988893;28;102446;-53
2021/07/31 05:49:56;;;;;;;8.30;7.50;;;;;;;24.27;72.39;100700.72;4999217;28;102292;-53
2021/07/31 05:52:26;;;;;;;7.88;7.13;;;;;;;24.28;72.03;100691.25;4987094;28;105316;-53
2021/07/31 05:54:53;;;;;;;7.97;7.18;;;;;;;24.29;72.35;100687.28;4990314;28;102236;-53
2021/07/31 05:57:21;;;;;;;8.60;7.57;;;;;;;24.31;72.20;100693.28;4987929;28;102656;-53
2021/07/31 05:59:49;;;;;;;7.95;7.25;;;;;;;24.32;72.29;100686.56;4989050;28;102331;-53
2021/07/31 06:02:16;;;;;;;8.73;7.93;;;;;;;24.33;72.25;100693.72;4984786;28;103862;-53
2021/07/31 06:04:43;;;;;;;7.72;7.07;;;;;;;24.34;72.42;100689.75;4984284;28;102337;-53
2021/07/31 06:07:11;;;;;;;9.82;7.07;;;;;;;24.34;72.09;100689.75;4990525;28;102361;-54
2021/07/31 06:09:38;;;;;;;8.73;7.00;;;;;;;24.36;72.21;100693.78;4990337;28;102599;-53
2021/07/31 06:12:07;;;;;;;7.60;6.90;;;;;;;24.39;72.21;100697.81;4983909;28;103757;-53
2021/07/31 06:14:36;;;;;;;7.82;7.13;;;;;;;24.38;72.27;100699.00;4985081;28;102485;-53
2021/07/31 06:17:04;;;;;;;7.60;7.00;;;;;;;24.40;72.11;100702.25;4993397;28;103083;-53
2021/07/31 06:19:31;;;;;;;7.72;6.93;;;;;;;24.40;72.29;100711.38;4995946;28;102322;-52
2021/07/31 06:21:58;;;;;;;7.72;7.10;;;;;;;24.41;72.00;100706.63;4990512;28;103045;-53
2021/07/31 06:24:25;;;;;;;7.88;7.18;;;;;;;24.42;72.10;100708.25;4989741;28;103788;-53
2021/07/31 06:26:51;;;;;;;7.30;6.70;;;;;;;24.42;72.12;100708.25;4991563;28;102383;-53
2021/07/31 06:29:18;;;;;;;7.70;7.00;;;;;;;24.44;72.23;100714.25;4992081;28;102446;-53
2021/07/31 06:31:46;;;;;;;8.05;7.28;;;;;;;24.44;71.94;100708.69;4988536;28;102986;-53
2021/07/31 06:34:13;;;;;;;8.23;7.53;;;;;;;24.45;72.05;100707.50;4994038;28;102401;-54
2021/07/31 06:36:49;;;;;;;7.57;6.97;;;;;;;24.45;72.01;100707.50;5006079;28;102437;-53
2021/07/31 06:39:16;;;;;;;7.25;6.65;;;;;;;24.45;72.00;100707.50;5008024;28;102783;-53
2021/07/31 06:41:42;;;;;;;7.80;6.97;;;;;;;24.46;72.21;100703.56;5005356;28;102694;-53
2021/07/31 06:44:09;;;;;;;7.85;7.07;;;;;;;24.47;72.10;100713.53;5005137;28;102224;-53
2021/07/31 06:46:36;;;;;;;7.53;6.93;;;;;;;24.48;72.03;100705.97;5007281;28;102292;-53
2021/07/31 06:49:04;;;;;;;7.95;7.18;;;;;;;24.49;72.04;100705.63;5007048;28;102323;-53
2021/07/31 06:51:31;;;;;;;8.43;7.50;;;;;;;24.49;71.94;100707.56;5007290;28;103926;-53
2021/07/31 06:54:01;;;;;;;7.85;6.88;;;;;;;24.49;72.13;100705.63;5010595;28;102389;-53
2021/07/31 06:56:27;;;;;;;6.95;6.25;;;;;;;24.49;72.07;100702.84;5006798;28;102977;-53
2021/07/31 06:58:55;;;;;;;7.20;6.60;;;;;;;24.51;71.97;100706.03;5009103;28;102567;-53
2021/07/31 07:01:21;;;;;;;6.93;6.35;;;;;;;;;;5005193;28;103963;-53
2021/07/31 07:03:50;;;;;;;6.90;6.30;;;;;;;24.53;72.35;100700.13;5007869;28;102680;-53
2021/07/31 07:06:20;;;;;;;7.35;6.65;;;;;;;24.53;72.08;100698.16;5006047;28;102871;-53
2021/07/31 07:08:47;;;;;;;7.57;6.88;;;;;;;24.55;72.01;100697.78;5007060;28;102307;-53
2021/07/31 07:11:14;;;;;;;7.63;6.90;;;;;;;24.57;72.07;100701.00;5008870;28;103924;-53
2021/07/31 07:13:41;;;;;;;6.90;6.40;;;;;;;24.57;72.01;100701.00;5006285;28;102643;-53
2021/07/31 07:16:11;;;;;;;7.57;6.88;;;;;;;24.57;71.86;100707.38;5007918;28;102073;-53
2021/07/31 07:18:38;;;;;;;7.13;6.50;;;;;;;24.57;72.05;100699.03;5007558;28;104378;-52
2021/07/31 07:21:06;;;;;;;7.25;6.55;;;;;;;24.58;72.04;100700.63;5000873;28;103960;-53
2021/07/31 07:23:34;;;;;;;6.90;6.35;;;;;;;24.58;72.13;100694.25;5009092;28;103517;-53
2021/07/31 07:26:01;;;;;;;;;;;;;;;24.59;72.04;100696.66;5007921;28;102397;-52
2021/07/31 07:28:28;;;;;;;7.47;6.78;;;;;;;24.60;71.72;100691.94;5014991;28;102532;-53
2021/07/31 07:30:55;;;;;;;7.10;6.40;;;;;;;24.61;72.00;100704.66;5000236;28;103775;-52
2021/07/31 07:33:21;;;;;;;7.45;6.75;;;;;;;24.61;72.06;100702.69;5008210;28;102310;-53
2021/07/31 07:35:48;;;;;;;7.05;6.45;;;;;;;24.61;71.72;100697.13;4983813;28;102586;-52
2021/07/31 07:38:15;;;;;;;6.80;6.30;;;;;;;24.61;71.99;100699.91;4990001;28;102640;-53
2021/07/31 07:40:43;;;;;;;7.03;6.43;;;;;;;24.63;71.74;100697.56;4985340;28;103913;-53
2021/07/31 07:43:11;;;;;;;7.03;6.32;;;;;;;24.64;71.76;100698.38;4988881;28;102993;-53
2021/07/31 07:45:37;;;;;;;6.78;6.18;;;;;;;24.65;71.81;100700.78;4984965;28;102690;-53
2021/07/31 07:48:06;;;;;;;7.13;6.53;;;;;;;24.66;71.84;100699.59;4995331;28;102634;-53
2021/07/31 07:50:33;;;;;;;7.38;6.68;;;;;;;24.66;71.85;100694.03;4986938;28;104102;-52
2021/07/31 07:53:00;;;;;;;6.80;6.20;;;;;;;24.65;71.81;100683.28;4986739;28;104097;-53
2021/07/31 07:55:27;;;;;;;6.95;6.35;;;;;;;24.67;71.78;100681.75;4987835;28;102701;-53
2021/07/31 07:57:55;;;;;;;6.28;5.78;;;;;;;24.66;71.87;100691.25;4988830;28;102361;-53
2021/07/31 08:00:23;;;;;;;7.35;6.75;;;;;;;24.67;71.73;100687.31;4987216;28;103797;-53
2021/07/31 08:02:49;;;;;;;7.47;6.82;;;;;;;24.68;71.56;100685.31;4976053;28;102211;-53
2021/07/31 08:05:16;;;;;;;7.80;7.10;;;;;;;24.68;71.88;100683.34;4986280;28;105352;-53
2021/07/31 08:07:44;;;;;;;6.20;5.70;;;;;;;24.68;71.70;100685.31;4988805;28;102670;-53
2021/07/31 08:10:12;;;;;;;6.82;6.22;;;;;;;24.70;71.79;100680.19;4986603;28;103846;-53
2021/07/31 08:12:38;;;;;;;6.90;6.30;;;;;;;24.69;71.81;100687.72;4984037;28;102344;-53
2021/07/31 08:15:08;;;;;;;6.97;6.30;;;;;;;24.71;71.81;100681.81;4983329;28;102383;-53
2021/07/31 08:17:35;;;;;;;7.03;6.43;;;;;;;24.69;71.77;100682.16;4985244;28;102693;-53
2021/07/31 08:20:05;;;;;;;7.07;6.47;;;;;;;24.69;71.58;100690.50;4986545;28;104067;-53
2021/07/31 08:22:31;;;;;;;6.75;6.15;;;;;;;24.69;71.54;100679.38;4980981;28;102717;-53
2021/07/31 08:24:58;;;;;;;7.38;6.65;;;;;;;24.71;71.58;100686.56;4986101;28;102921;-53
2021/07/31 08:27:24;;;;;;;7.28;6.63;;;;;;;24.71;71.82;100681.00;4986311;28;102486;-53
2021/07/31 08:29:51;;;;;;;7.75;7.05;;;;;;;24.71;71.75;100683.78;4986338;28;103959;-53
2021/07/31 08:32:19;;;;;;;6.97;6.38;;;;;;;24.71;71.66;100698.50;4978287;28;102776;-53
2021/07/31 08:34:46;;;;;;;7.03;6.43;;;;;;;24.71;71.65;100681.00;4980008;28;102734;-53
2021/07/31 08:37:12;;;;;;;7.55;6.80;;;;;;;24.72;71.71;100682.59;4985323;28;102632;-53
2021/07/31 08:39:39;;;;;;;7.40;6.72;;;;;;;24.71;71.49;100683.78;4974786;28;103723;-52
2021/07/31 08:42:06;;;;;;;6.70;6.10;;;;;;;24.72;71.58;100688.19;4985307;28;104436;-53
2021/07/31 08:44:34;;;;;;;7.50;6.80;;;;;;;24.74;71.55;100683.03;4981420;28;102461;-52
2021/07/31 08:47:03;;;;;;;7.30;6.63;;;;;;;24.72;71.55;100677.03;4981891;28;102862;-53
2021/07/31 08:49:33;;;;;;;7.35;6.65;;;;;;;24.73;71.58;100685.00;4976203;28;103911;-53
2021/07/31 08:52:01;;;;;;;7.18;6.50;;;;;;;24.72;71.59;100680.63;4987297;28;102362;-52
2021/07/31 08:54:29;;;;;;;7.07;6.47;;;;;;;24.74;71.74;100685.81;4980074;28;102713;-52
2021/07/31 08:56:55;;;;;;;7.03;6.43;;;;;;;24.73;71.60;100685.00;4981295;28;102334;-52
2021/07/31 08:59:25;;;;;;;7.63;6.85;;;;;;;24.72;71.82;100683.41;4985810;28;103892;-53
2021/07/31 09:01:51;;;;;;;8.02;7.03;;;;;;;24.71;71.69;100683.78;4984453;28;102530;-53
2021/07/31 09:04:18;;;;;;;7.07;6.38;;;;;;;24.71;71.40;100681.00;4982973;28;102128;-52
2021/07/31 09:06:47;;;;;;;7.00;6.40;;;;;;;24.71;71.61;100683.78;4978643;28;103008;-53
2021/07/31 09:09:22;;;;;;;7.53;6.93;;;;;;;24.72;71.67;100682.59;4976379;28;104945;-56
2021/07/31 09:11:57;;;;;;;6.90;6.30;;;;;;;24.72;71.66;100682.59;4962039;28;102739;-52
2021/07/31 09:14:25;;;;;;;7.25;6.63;;;;;;;24.72;71.55;100677.03;4983192;28;102138;-52
2021/07/31 09:17:03;;;;;;;7.55;6.85;;;;;;;24.71;71.56;100669.88;4989357;28;102410;-52
2021/07/31 09:19:29;;;;;;;7.78;7.07;;;;;;;24.71;71.41;100675.44;4989661;28;103924;-53
2021/07/31 09:22:04;;;;;;;7.32;6.68;;;;;;;24.71;71.65;100681.00;4989606;28;102212;-52
2021/07/31 09:24:31;;;;;;;7.55;6.95;;;;;;;24.69;71.51;100679.38;4985053;28;103186;-53
2021/07/31 09:26:58;;;;;;;7.75;7.05;;;;;;;24.68;71.52;100677.78;4989516;28;102577;-53
2021/07/31 09:29:26;;;;;;;7.18;6.47;;;;;;;24.66;71.55;100668.19;4989270;28;104183;-53
2021/07/31 09:31:57;;;;;;;7.50;6.90;;;;;;;24.67;71.61;100669.81;4987385;28;102559;-53
2021/07/31 09:34:26;;;;;;;7.20;6.60;;;;;;;24.67;71.56;100670.59;4984451;28;102657;-53
2021/07/31 09:37:06;;;;;;;7.45;6.72;;;;;;;24.68;71.80;100660.28;4985909;28;102653;-52
2021/07/31 09:39:48;;;;;;;7.53;6.85;;;;;;;24.69;71.52;100671.03;4983957;28;103938;-53
2021/07/31 09:42:25;;;;;;;7.10;6.50;;;;;;;24.71;71.74;100667.09;4981659;28;103711;-52
2021/07/31 09:44:52;;;;;;;8.45;7.43;;;;;;;24.68;71.40;100663.06;4986236;28;102380;-52
2021/07/31 09:47:18;;;;;;;7.57;6.95;;;;;;;24.68;71.67;100675.00;4989335;28;102461;-52
2021/07/31 09:49:46;;;;;;;7.22;6.63;;;;;;;24.68;71.75;100671.41;4991019;28;103778;-53
2021/07/31 09:52:18;;;;;;;7.75;7.10;;;;;;;24.68;71.64;100666.66;4977621;28;102741;-52
2021/07/31 09:54:45;;;;;;;7.80;7.10;;;;;;;24.67;71.42;100659.47;4990011;28;102294;-52
2021/07/31 09:57:12;;;;;;;8.07;7.13;;;;;;;24.65;71.14;100669.34;4990629;28;102809;-52
2021/07/31 09:59:44;;;;;;;8.10;7.40;;;;;;;24.65;71.75;100667.38;4986297;28;103896;-53
2021/07/31 10:02:15;;;;;;;7.95;7.25;;;;;;;24.65;71.51;100672.94;4986395;28;102511;-52
2021/07/31 10:04:42;;;;;;;7.40;6.80;;;;;;;24.65;71.47;100661.00;4982392;28;103176;-53
2021/07/31 10:07:15;;;;;;;7.32;6.72;;;;;;;24.63;71.53;100664.19;4985662;28;102911;-52
2021/07/31 10:09:50;;;;;;;8.50;7.57;;;;;;;24.63;71.53;100658.59;4986406;28;104344;-53
2021/07/31 10:12:34;;;;;;;7.90;7.20;;;;;;;24.63;71.49;100653.03;4987582;28;103737;-53
2021/07/31 10:15:01;;;;;;;7.95;7.32;;;;;;;24.63;71.58;100650.25;4986123;28;102376;-53
2021/07/31 10:17:29;;;;;;;7.88;7.18;;;;;;;24.63;71.72;100641.91;4990929;28;102236;-53
2021/07/31 10:19:57;;;;;;;7.53;6.83;;;;;;;24.65;71.51;100645.13;4987689;28;103862;-52
2021/07/31 10:22:41;;;;;;;7.60;6.90;;;;;;;24.65;71.67;100645.13;4993300;28;102181;-52
2021/07/31 10:25:10;;;;;;;7.90;7.25;;;;;;;24.65;71.49;100644.31;4979991;28;102412;-52
2021/07/31 10:27:37;;;;;;;7.90;7.20;;;;;;;24.64;71.62;100637.16;4985106;28;103749;-52
2021/07/31 10:30:06;;;;;;;8.25;7.55;;;;;;;24.64;71.45;100637.94;4986424;28;103944;-53
2021/07/31 10:32:40;;;;;;;8.43;7.72;;;;;;;24.65;71.61;100638.75;4988280;28;102581;-52
2021/07/31 10:35:20;;;;;;;8.07;7.28;;;;;;;24.65;71.56;100634.00;4987815;28;102417;-53
2021/07/31 10:37:47;;;;;;;8.07;7.40;;;;;;;24.64;71.49;100637.94;4989576;28;102699;-53
2021/07/31 10:40:53;;;;;;;7.90;7.20;;;;;;;24.63;71.67;100633.56;4987036;28;103929;-52
2021/07/31 10:43:23;;;;;;;8.32;7.63;;;;;;;24.63;71.55;100641.91;4988063;28;102439;-52
2021/07/31 10:46:10;;;;;;;7.90;7.30;;;;;;;24.62;71.50;100637.50;4988596;28;102437;-52
2021/07/31 10:48:36;;;;;;;8.25;7.55;;;;;;;24.62;71.57;100633.91;5001824;28;102239;-52
2021/07/31 10:51:03;;;;;;;8.10;7.40;;;;;;;24.62;71.50;100629.16;4987877;28;103703;-53
2021/07/31 10:54:00;;;;;;;8.10;7.40;;;;;;;24.63;71.68;100636.34;4986144;28;102375;-52
2021/07/31 10:56:56;;;;;;;8.23;7.50;;;;;;;24.64;71.48;100629.59;4901992;28;102448;-53
2021/07/31 10:59:25;;;;;;;7.88;7.18;;;;;;;24.64;71.26;100637.94;4974443;28;102527;-53
2021/07/31 11:02:32;;;;;;;7.75;7.05;;;;;;;24.65;71.65;100634.00;4990041;28;103641;-52
2021/07/31 11:04:59;;;;;;;8.27;7.55;;;;;;;24.65;71.65;100633.19;4979984;28;102833;-53
2021/07/31 11:07:27;;;;;;;8.40;7.65;;;;;;;24.63;71.46;100636.34;4982621;28;102761;-53
2021/07/31 11:10:32;;;;;;;8.17;7.47;;;;;;;24.62;71.50;100640.28;4985629;28;103112;-53
2021/07/31 11:12:59;;;;;;;8.82;8.13;;;;;;;24.61;71.53;100633.13;4986027;28;103912;-57
2021/07/31 11:15:28;;;;;;;8.20;7.53;;;;;;;24.60;71.50;100620.38;4986868;28;102375;-53
2021/07/31 11:17:56;;;;;;;8.25;7.55;;;;;;;24.60;71.21;100619.59;4985841;28;102375;-56
2021/07/31 11:20:25;;;;;;;;;;;;;;;24.57;71.27;100615.56;4988572;28;102760;-52
2021/07/31 11:22:53;;;;;;;8.73;8.00;;;;;;;24.57;71.13;100615.56;4987315;28;103858;-52